sensor_id;sensor_type;location;lat;lon;timestamp;P1;durP1;ratioP1;P2;durP2;ratioP2
58340;SDS011;44149;43.060;0.104;2022-07-23T00:02:21;2.95;;;1.50;;
58340;SDS011;44149;43.060;0.104;2022-07-23T00:04:47;3.05;;;1.50;;
58340;SDS011;44149;43.060;0.104;2022-07-23T00:07:13;2.08;;;1.38;;
58340;SDS011;44149;43.060;0.104;2022-07-23T00:09:39;2.15;;;1.33;;
58340;SDS011;44149;43.060;0.104;2022-07-23T00:12:06;1.42;;;1.23;;
58340;SDS011;44149;43.060;0.104;2022-07-23T00:14:32;1.70;;;1.33;;
58340;SDS011;44149;43.060;0.104;2022-07-23T00:16:58;2.28;;;1.17;;
58340;SDS011;44149;43.060;0.104;2022-07-23T00:19:24;1.88;;;1.27;;
58340;SDS011;44149;43.060;0.104;2022-07-23T00:21:50;2.67;;;1.45;;
58340;SDS011;44149;43.060;0.104;2022-07-23T00:24:16;4.18;;;1.30;;
58340;SDS011;44149;43.060;0.104;2022-07-23T00:26:42;6.32;;;1.65;;
58340;SDS011;44149;43.060;0.104;2022-07-23T00:29:08;4.13;;;2.00;;
58340;SDS011;44149;43.060;0.104;2022-07-23T00:31:35;3.65;;;1.48;;
58340;SDS011;44149;43.060;0.104;2022-07-23T00:34:01;3.88;;;1.40;;
58340;SDS011;44149;43.060;0.104;2022-07-23T00:36:27;3.13;;;1.50;;
58340;SDS011;44149;43.060;0.104;2022-07-23T00:38:53;3.05;;;1.70;;
58340;SDS011;44149;43.060;0.104;2022-07-23T00:41:19;3.30;;;2.00;;
58340;SDS011;44149;43.060;0.104;2022-07-23T00:43:46;2.42;;;1.58;;
58340;SDS011;44149;43.060;0.104;2022-07-23T00:46:12;5.50;;;1.38;;
58340;SDS011;44149;43.060;0.104;2022-07-23T00:48:38;1.75;;;1.50;;
58340;SDS011;44149;43.060;0.104;2022-07-23T00:51:04;6.82;;;1.60;;
58340;SDS011;44149;43.060;0.104;2022-07-23T00:53:30;2.40;;;1.38;;
58340;SDS011;44149;43.060;0.104;2022-07-23T00:55:57;2.55;;;1.38;;
58340;SDS011;44149;43.060;0.104;2022-07-23T00:58:24;4.38;;;1.27;;
58340;SDS011;44149;43.060;0.104;2022-07-23T01:00:50;2.28;;;1.38;;
58340;SDS011;44149;43.060;0.104;2022-07-23T01:03:16;2.35;;;1.50;;
58340;SDS011;44149;43.060;0.104;2022-07-23T01:05:42;5.07;;;1.75;;
58340;SDS011;44149;43.060;0.104;2022-07-23T01:08:08;4.13;;;1.40;;
58340;SDS011;44149;43.060;0.104;2022-07-23T01:10:34;3.63;;;1.65;;
58340;SDS011;44149;43.060;0.104;2022-07-23T01:13:05;2.45;;;1.45;;
58340;SDS011;44149;43.060;0.104;2022-07-23T01:15:32;3.28;;;1.35;;
58340;SDS011;44149;43.060;0.104;2022-07-23T01:17:59;2.15;;;1.40;;
58340;SDS011;44149;43.060;0.104;2022-07-23T01:20:25;2.75;;;1.58;;
58340;SDS011;44149;43.060;0.104;2022-07-23T01:22:51;1.92;;;1.42;;
58340;SDS011;44149;43.060;0.104;2022-07-23T01:25:18;3.17;;;1.52;;
58340;SDS011;44149;43.060;0.104;2022-07-23T01:27:44;2.53;;;1.48;;
58340;SDS011;44149;43.060;0.104;2022-07-23T01:30:11;4.45;;;1.60;;
58340;SDS011;44149;43.060;0.104;2022-07-23T01:32:37;2.42;;;1.50;;
58340;SDS011;44149;43.060;0.104;2022-07-23T01:35:04;2.25;;;1.48;;
58340;SDS011;44149;43.060;0.104;2022-07-23T01:37:31;1.92;;;1.30;;
58340;SDS011;44149;43.060;0.104;2022-07-23T01:39:57;1.67;;;1.17;;
58340;SDS011;44149;43.060;0.104;2022-07-23T01:42:24;1.60;;;1.38;;
58340;SDS011;44149;43.060;0.104;2022-07-23T01:44:50;2.30;;;1.40;;
58340;SDS011;44149;43.060;0.104;2022-07-23T01:47:16;2.72;;;1.60;;
58340;SDS011;44149;43.060;0.104;2022-07-23T01:49:42;2.13;;;1.48;;
58340;SDS011;44149;43.060;0.104;2022-07-23T01:52:08;1.63;;;1.25;;
58340;SDS011;44149;43.060;0.104;2022-07-23T01:54:36;3.55;;;1.50;;
58340;SDS011;44149;43.060;0.104;2022-07-23T01:57:04;3.85;;;1.65;;
58340;SDS011;44149;43.060;0.104;2022-07-23T01:59:30;4.40;;;1.55;;
58340;SDS011;44149;43.060;0.104;2022-07-23T02:01:56;1.65;;;1.25;;
58340;SDS011;44149;43.060;0.104;2022-07-23T02:04:23;3.33;;;1.35;;
58340;SDS011;44149;43.060;0.104;2022-07-23T02:06:49;3.50;;;1.77;;
58340;SDS011;44149;43.060;0.104;2022-07-23T02:09:16;1.70;;;1.33;;
58340;SDS011;44149;43.060;0.104;2022-07-23T02:11:42;1.80;;;1.40;;
58340;SDS011;44149;43.060;0.104;2022-07-23T02:14:08;3.47;;;1.52;;
58340;SDS011;44149;43.060;0.104;2022-07-23T02:16:34;6.28;;;1.48;;
58340;SDS011;44149;43.060;0.104;2022-07-23T02:19:01;2.95;;;1.20;;
58340;SDS011;44149;43.060;0.104;2022-07-23T02:21:27;1.38;;;1.08;;
58340;SDS011;44149;43.060;0.104;2022-07-23T02:23:53;1.23;;;1.05;;
58340;SDS011;44149;43.060;0.104;2022-07-23T02:26:19;9.60;;;1.73;;
58340;SDS011;44149;43.060;0.104;2022-07-23T02:28:45;1.40;;;1.23;;
58340;SDS011;44149;43.060;0.104;2022-07-23T02:31:12;2.42;;;1.20;;
58340;SDS011;44149;43.060;0.104;2022-07-23T02:33:38;1.92;;;1.40;;
58340;SDS011;44149;43.060;0.104;2022-07-23T02:36:04;1.70;;;1.20;;
58340;SDS011;44149;43.060;0.104;2022-07-23T02:38:30;2.25;;;1.55;;
58340;SDS011;44149;43.060;0.104;2022-07-23T02:40:56;1.60;;;1.38;;
58340;SDS011;44149;43.060;0.104;2022-07-23T02:43:22;2.33;;;1.42;;
58340;SDS011;44149;43.060;0.104;2022-07-23T02:45:49;1.65;;;1.20;;
58340;SDS011;44149;43.060;0.104;2022-07-23T02:48:15;2.13;;;1.40;;
58340;SDS011;44149;43.060;0.104;2022-07-23T02:50:41;1.33;;;1.17;;
58340;SDS011;44149;43.060;0.104;2022-07-23T02:53:07;1.40;;;1.30;;
58340;SDS011;44149;43.060;0.104;2022-07-23T02:55:33;4.00;;;1.48;;
58340;SDS011;44149;43.060;0.104;2022-07-23T02:57:59;2.15;;;1.40;;
58340;SDS011;44149;43.060;0.104;2022-07-23T03:00:26;7.88;;;1.80;;
58340;SDS011;44149;43.060;0.104;2022-07-23T03:02:52;1.60;;;1.15;;
58340;SDS011;44149;43.060;0.104;2022-07-23T03:05:18;5.28;;;1.63;;
58340;SDS011;44149;43.060;0.104;2022-07-23T03:07:44;3.72;;;1.35;;
58340;SDS011;44149;43.060;0.104;2022-07-23T03:10:10;2.22;;;1.65;;
58340;SDS011;44149;43.060;0.104;2022-07-23T03:12:36;1.90;;;1.23;;
58340;SDS011;44149;43.060;0.104;2022-07-23T03:15:02;3.55;;;1.40;;
58340;SDS011;44149;43.060;0.104;2022-07-23T03:17:29;7.00;;;1.75;;
58340;SDS011;44149;43.060;0.104;2022-07-23T03:19:55;2.88;;;1.88;;
58340;SDS011;44149;43.060;0.104;2022-07-23T03:22:21;2.42;;;1.23;;
58340;SDS011;44149;43.060;0.104;2022-07-23T03:24:47;2.45;;;1.52;;
58340;SDS011;44149;43.060;0.104;2022-07-23T03:27:20;2.00;;;1.23;;
58340;SDS011;44149;43.060;0.104;2022-07-23T03:29:46;3.92;;;1.63;;
58340;SDS011;44149;43.060;0.104;2022-07-23T03:32:12;2.72;;;1.40;;
58340;SDS011;44149;43.060;0.104;2022-07-23T03:34:38;3.13;;;1.48;;
58340;SDS011;44149;43.060;0.104;2022-07-23T03:37:04;2.80;;;1.35;;
58340;SDS011;44149;43.060;0.104;2022-07-23T03:39:30;4.40;;;1.50;;
58340;SDS011;44149;43.060;0.104;2022-07-23T03:41:56;4.82;;;1.25;;
58340;SDS011;44149;43.060;0.104;2022-07-23T03:44:23;2.40;;;1.13;;
58340;SDS011;44149;43.060;0.104;2022-07-23T03:46:49;1.98;;;1.20;;
58340;SDS011;44149;43.060;0.104;2022-07-23T03:49:15;1.35;;;1.00;;
58340;SDS011;44149;43.060;0.104;2022-07-23T03:51:41;1.40;;;1.00;;
58340;SDS011;44149;43.060;0.104;2022-07-23T03:54:07;1.42;;;0.88;;
58340;SDS011;44149;43.060;0.104;2022-07-23T03:56:33;1.30;;;1.20;;
58340;SDS011;44149;43.060;0.104;2022-07-23T03:58:59;1.10;;;1.00;;
58340;SDS011;44149;43.060;0.104;2022-07-23T04:01:26;1.58;;;1.10;;
58340;SDS011;44149;43.060;0.104;2022-07-23T04:03:52;2.28;;;1.00;;
58340;SDS011;44149;43.060;0.104;2022-07-23T04:06:18;2.38;;;0.90;;
58340;SDS011;44149;43.060;0.104;2022-07-23T04:08:44;1.48;;;0.90;;
58340;SDS011;44149;43.060;0.104;2022-07-23T04:11:10;2.13;;;0.95;;
58340;SDS011;44149;43.060;0.104;2022-07-23T04:13:36;1.20;;;0.82;;
58340;SDS011;44149;43.060;0.104;2022-07-23T04:16:03;3.65;;;1.00;;
58340;SDS011;44149;43.060;0.104;2022-07-23T04:18:29;3.10;;;0.90;;
58340;SDS011;44149;43.060;0.104;2022-07-23T04:20:55;1.92;;;0.85;;
58340;SDS011;44149;43.060;0.104;2022-07-23T04:23:21;1.10;;;0.80;;
58340;SDS011;44149;43.060;0.104;2022-07-23T04:25:47;0.70;;;0.63;;
58340;SDS011;44149;43.060;0.104;2022-07-23T04:28:14;1.63;;;0.80;;
58340;SDS011;44149;43.060;0.104;2022-07-23T04:30:40;0.80;;;0.80;;
58340;SDS011;44149;43.060;0.104;2022-07-23T04:33:06;1.08;;;0.88;;
58340;SDS011;44149;43.060;0.104;2022-07-23T04:35:33;0.70;;;0.70;;
58340;SDS011;44149;43.060;0.104;2022-07-23T04:37:59;2.50;;;0.80;;
58340;SDS011;44149;43.060;0.104;2022-07-23T04:40:26;0.75;;;0.73;;
58340;SDS011;44149;43.060;0.104;2022-07-23T04:42:52;0.70;;;0.60;;
58340;SDS011;44149;43.060;0.104;2022-07-23T04:45:18;0.57;;;0.57;;
58340;SDS011;44149;43.060;0.104;2022-07-23T04:47:44;1.23;;;0.68;;
58340;SDS011;44149;43.060;0.104;2022-07-23T04:50:10;0.63;;;0.63;;
58340;SDS011;44149;43.060;0.104;2022-07-23T04:52:36;0.75;;;0.75;;
58340;SDS011;44149;43.060;0.104;2022-07-23T04:55:03;1.02;;;0.60;;
58340;SDS011;44149;43.060;0.104;2022-07-23T04:57:29;0.68;;;0.68;;
58340;SDS011;44149;43.060;0.104;2022-07-23T04:59:55;0.77;;;0.73;;
58340;SDS011;44149;43.060;0.104;2022-07-23T05:02:21;1.08;;;0.90;;
58340;SDS011;44149;43.060;0.104;2022-07-23T05:04:47;2.65;;;0.85;;
58340;SDS011;44149;43.060;0.104;2022-07-23T05:07:13;3.38;;;1.30;;
58340;SDS011;44149;43.060;0.104;2022-07-23T05:09:39;2.88;;;1.00;;
58340;SDS011;44149;43.060;0.104;2022-07-23T05:12:06;2.45;;;1.20;;
58340;SDS011;44149;43.060;0.104;2022-07-23T05:14:32;1.48;;;1.10;;
58340;SDS011;44149;43.060;0.104;2022-07-23T05:16:58;2.58;;;1.20;;
58340;SDS011;44149;43.060;0.104;2022-07-23T05:19:24;2.08;;;1.25;;
58340;SDS011;44149;43.060;0.104;2022-07-23T05:21:50;1.27;;;1.17;;
58340;SDS011;44149;43.060;0.104;2022-07-23T05:24:16;1.85;;;1.13;;
58340;SDS011;44149;43.060;0.104;2022-07-23T05:26:43;1.75;;;1.05;;
58340;SDS011;44149;43.060;0.104;2022-07-23T05:29:09;2.65;;;1.13;;
58340;SDS011;44149;43.060;0.104;2022-07-23T05:31:35;2.15;;;1.38;;
58340;SDS011;44149;43.060;0.104;2022-07-23T05:34:01;2.45;;;1.20;;
58340;SDS011;44149;43.060;0.104;2022-07-23T05:36:27;1.88;;;1.17;;
58340;SDS011;44149;43.060;0.104;2022-07-23T05:38:53;3.60;;;1.20;;
58340;SDS011;44149;43.060;0.104;2022-07-23T05:41:20;2.00;;;1.40;;
58340;SDS011;44149;43.060;0.104;2022-07-23T05:43:46;1.25;;;1.00;;
58340;SDS011;44149;43.060;0.104;2022-07-23T05:46:12;1.63;;;1.30;;
58340;SDS011;44149;43.060;0.104;2022-07-23T05:48:38;1.33;;;1.23;;
58340;SDS011;44149;43.060;0.104;2022-07-23T05:51:04;1.83;;;1.50;;
58340;SDS011;44149;43.060;0.104;2022-07-23T05:53:32;2.10;;;1.40;;
58340;SDS011;44149;43.060;0.104;2022-07-23T05:55:58;1.50;;;1.10;;
58340;SDS011;44149;43.060;0.104;2022-07-23T05:58:24;2.78;;;1.50;;
58340;SDS011;44149;43.060;0.104;2022-07-23T06:00:50;1.88;;;1.35;;
58340;SDS011;44149;43.060;0.104;2022-07-23T06:03:16;2.33;;;1.23;;
58340;SDS011;44149;43.060;0.104;2022-07-23T06:05:43;3.47;;;1.17;;
58340;SDS011;44149;43.060;0.104;2022-07-23T06:08:09;3.70;;;1.08;;
58340;SDS011;44149;43.060;0.104;2022-07-23T06:10:35;1.80;;;1.20;;
58340;SDS011;44149;43.060;0.104;2022-07-23T06:13:01;5.70;;;1.35;;
58340;SDS011;44149;43.060;0.104;2022-07-23T06:15:27;2.17;;;1.13;;
58340;SDS011;44149;43.060;0.104;2022-07-23T06:17:54;2.10;;;1.30;;
58340;SDS011;44149;43.060;0.104;2022-07-23T06:20:20;1.38;;;1.15;;
58340;SDS011;44149;43.060;0.104;2022-07-23T06:22:46;1.98;;;1.15;;
58340;SDS011;44149;43.060;0.104;2022-07-23T06:25:12;2.80;;;1.00;;
58340;SDS011;44149;43.060;0.104;2022-07-23T06:27:38;1.85;;;1.35;;
58340;SDS011;44149;43.060;0.104;2022-07-23T06:30:04;1.88;;;1.10;;
58340;SDS011;44149;43.060;0.104;2022-07-23T06:32:33;4.22;;;1.33;;
58340;SDS011;44149;43.060;0.104;2022-07-23T06:34:59;2.45;;;1.50;;
58340;SDS011;44149;43.060;0.104;2022-07-23T06:37:25;1.98;;;0.98;;
58340;SDS011;44149;43.060;0.104;2022-07-23T06:39:51;1.63;;;1.20;;
58340;SDS011;44149;43.060;0.104;2022-07-23T06:42:17;4.03;;;1.85;;
58340;SDS011;44149;43.060;0.104;2022-07-23T06:44:44;1.85;;;1.05;;
58340;SDS011;44149;43.060;0.104;2022-07-23T06:47:10;2.17;;;1.00;;
58340;SDS011;44149;43.060;0.104;2022-07-23T06:49:36;1.27;;;1.10;;
58340;SDS011;44149;43.060;0.104;2022-07-23T06:52:02;3.35;;;1.10;;
58340;SDS011;44149;43.060;0.104;2022-07-23T06:54:28;4.55;;;1.77;;
58340;SDS011;44149;43.060;0.104;2022-07-23T06:56:54;1.42;;;0.98;;
58340;SDS011;44149;43.060;0.104;2022-07-23T06:59:20;1.25;;;1.15;;
58340;SDS011;44149;43.060;0.104;2022-07-23T07:01:46;3.67;;;1.42;;
58340;SDS011;44149;43.060;0.104;2022-07-23T07:04:13;2.45;;;1.38;;
58340;SDS011;44149;43.060;0.104;2022-07-23T07:06:39;1.50;;;1.08;;
58340;SDS011;44149;43.060;0.104;2022-07-23T07:09:05;2.05;;;1.08;;
58340;SDS011;44149;43.060;0.104;2022-07-23T07:11:31;3.70;;;1.70;;
58340;SDS011;44149;43.060;0.104;2022-07-23T07:13:57;2.03;;;1.52;;
58340;SDS011;44149;43.060;0.104;2022-07-23T07:16:23;2.33;;;1.73;;
58340;SDS011;44149;43.060;0.104;2022-07-23T07:18:49;2.78;;;1.60;;
58340;SDS011;44149;43.060;0.104;2022-07-23T07:21:15;2.72;;;1.73;;
58340;SDS011;44149;43.060;0.104;2022-07-23T07:23:42;2.40;;;1.38;;
58340;SDS011;44149;43.060;0.104;2022-07-23T07:26:08;2.33;;;1.27;;
58340;SDS011;44149;43.060;0.104;2022-07-23T07:28:34;1.73;;;1.20;;
58340;SDS011;44149;43.060;0.104;2022-07-23T07:31:00;2.95;;;1.38;;
58340;SDS011;44149;43.060;0.104;2022-07-23T07:33:27;1.75;;;1.30;;
58340;SDS011;44149;43.060;0.104;2022-07-23T07:35:53;1.85;;;1.08;;
58340;SDS011;44149;43.060;0.104;2022-07-23T07:38:20;1.95;;;1.20;;
58340;SDS011;44149;43.060;0.104;2022-07-23T07:40:46;2.58;;;1.23;;
58340;SDS011;44149;43.060;0.104;2022-07-23T07:43:12;1.38;;;0.98;;
58340;SDS011;44149;43.060;0.104;2022-07-23T07:45:38;3.00;;;1.33;;
58340;SDS011;44149;43.060;0.104;2022-07-23T07:48:05;2.33;;;1.38;;
58340;SDS011;44149;43.060;0.104;2022-07-23T07:50:31;2.45;;;1.30;;
58340;SDS011;44149;43.060;0.104;2022-07-23T07:52:57;1.80;;;1.38;;
58340;SDS011;44149;43.060;0.104;2022-07-23T07:55:23;1.75;;;1.20;;
58340;SDS011;44149;43.060;0.104;2022-07-23T07:57:50;4.10;;;1.65;;
58340;SDS011;44149;43.060;0.104;2022-07-23T08:00:16;3.45;;;1.50;;
58340;SDS011;44149;43.060;0.104;2022-07-23T08:02:46;2.15;;;1.15;;
58340;SDS011;44149;43.060;0.104;2022-07-23T08:05:13;2.50;;;1.35;;
58340;SDS011;44149;43.060;0.104;2022-07-23T08:07:39;2.80;;;1.23;;
58340;SDS011;44149;43.060;0.104;2022-07-23T08:10:06;1.92;;;1.30;;
58340;SDS011;44149;43.060;0.104;2022-07-23T08:12:46;3.17;;;1.40;;
58340;SDS011;44149;43.060;0.104;2022-07-23T08:15:13;1.63;;;1.27;;
58340;SDS011;44149;43.060;0.104;2022-07-23T08:17:40;2.40;;;1.35;;
58340;SDS011;44149;43.060;0.104;2022-07-23T08:20:07;3.47;;;1.50;;
58340;SDS011;44149;43.060;0.104;2022-07-23T08:22:46;2.92;;;1.23;;
58340;SDS011;44149;43.060;0.104;2022-07-23T08:25:13;3.08;;;2.10;;
58340;SDS011;44149;43.060;0.104;2022-07-23T08:27:40;3.70;;;1.20;;
58340;SDS011;44149;43.060;0.104;2022-07-23T08:30:06;5.88;;;1.83;;
58340;SDS011;44149;43.060;0.104;2022-07-23T08:32:33;3.15;;;1.67;;
58340;SDS011;44149;43.060;0.104;2022-07-23T08:34:59;3.10;;;1.30;;
58340;SDS011;44149;43.060;0.104;2022-07-23T08:37:25;3.08;;;1.60;;
58340;SDS011;44149;43.060;0.104;2022-07-23T08:39:51;2.67;;;1.30;;
58340;SDS011;44149;43.060;0.104;2022-07-23T08:42:17;4.68;;;1.73;;
58340;SDS011;44149;43.060;0.104;2022-07-23T08:44:44;2.15;;;1.35;;
58340;SDS011;44149;43.060;0.104;2022-07-23T08:47:14;2.78;;;1.50;;
58340;SDS011;44149;43.060;0.104;2022-07-23T08:49:40;1.75;;;1.52;;
58340;SDS011;44149;43.060;0.104;2022-07-23T08:52:07;4.22;;;1.40;;
58340;SDS011;44149;43.060;0.104;2022-07-23T08:54:34;2.63;;;1.60;;
58340;SDS011;44149;43.060;0.104;2022-07-23T08:57:00;2.38;;;1.60;;
58340;SDS011;44149;43.060;0.104;2022-07-23T08:59:26;2.08;;;1.45;;
58340;SDS011;44149;43.060;0.104;2022-07-23T09:01:53;3.00;;;1.60;;
58340;SDS011;44149;43.060;0.104;2022-07-23T09:04:19;3.97;;;1.60;;
58340;SDS011;44149;43.060;0.104;2022-07-23T09:06:45;2.25;;;1.60;;
58340;SDS011;44149;43.060;0.104;2022-07-23T09:09:18;2.92;;;1.40;;
58340;SDS011;44149;43.060;0.104;2022-07-23T09:14:10;2.92;;;1.77;;
58340;SDS011;44149;43.060;0.104;2022-07-23T09:16:36;3.47;;;1.65;;
58340;SDS011;44149;43.060;0.104;2022-07-23T09:19:03;2.83;;;1.67;;
58340;SDS011;44149;43.060;0.104;2022-07-23T09:21:31;2.42;;;1.63;;
58340;SDS011;44149;43.060;0.104;2022-07-23T09:23:59;3.05;;;1.52;;
58340;SDS011;44149;43.060;0.104;2022-07-23T09:26:30;3.17;;;1.52;;
58340;SDS011;44149;43.060;0.104;2022-07-23T09:28:57;3.15;;;1.80;;
58340;SDS011;44149;43.060;0.104;2022-07-23T09:31:24;6.60;;;1.77;;
58340;SDS011;44149;43.060;0.104;2022-07-23T09:33:51;1.70;;;1.42;;
58340;SDS011;44149;43.060;0.104;2022-07-23T09:36:27;1.83;;;1.55;;
58340;SDS011;44149;43.060;0.104;2022-07-23T09:38:53;2.95;;;2.05;;
58340;SDS011;44149;43.060;0.104;2022-07-23T09:41:20;2.17;;;1.20;;
58340;SDS011;44149;43.060;0.104;2022-07-23T09:43:46;4.05;;;1.73;;
58340;SDS011;44149;43.060;0.104;2022-07-23T09:46:24;3.00;;;2.10;;
58340;SDS011;44149;43.060;0.104;2022-07-23T09:48:51;2.30;;;1.77;;
58340;SDS011;44149;43.060;0.104;2022-07-23T09:51:18;3.83;;;1.88;;
58340;SDS011;44149;43.060;0.104;2022-07-23T09:53:48;4.75;;;2.05;;
58340;SDS011;44149;43.060;0.104;2022-07-23T09:56:14;3.83;;;1.67;;
58340;SDS011;44149;43.060;0.104;2022-07-23T09:58:41;3.22;;;1.70;;
58340;SDS011;44149;43.060;0.104;2022-07-23T10:01:14;4.22;;;1.98;;
58340;SDS011;44149;43.060;0.104;2022-07-23T10:03:41;2.70;;;1.67;;
58340;SDS011;44149;43.060;0.104;2022-07-23T10:06:08;2.30;;;1.55;;
58340;SDS011;44149;43.060;0.104;2022-07-23T10:08:35;3.80;;;1.77;;
58340;SDS011;44149;43.060;0.104;2022-07-23T10:11:04;2.35;;;1.42;;
58340;SDS011;44149;43.060;0.104;2022-07-23T10:13:30;2.15;;;1.33;;
58340;SDS011;44149;43.060;0.104;2022-07-23T10:16:18;3.33;;;1.95;;
58340;SDS011;44149;43.060;0.104;2022-07-23T10:18:44;5.70;;;2.35;;
58340;SDS011;44149;43.060;0.104;2022-07-23T10:21:10;5.15;;;2.00;;
58340;SDS011;44149;43.060;0.104;2022-07-23T10:23:42;3.00;;;2.17;;
58340;SDS011;44149;43.060;0.104;2022-07-23T10:26:24;3.15;;;2.30;;
58340;SDS011;44149;43.060;0.104;2022-07-23T10:37:36;3.85;;;2.38;;
58340;SDS011;44149;43.060;0.104;2022-07-23T10:40:10;5.53;;;2.55;;
58340;SDS011;44149;43.060;0.104;2022-07-23T10:42:37;5.03;;;2.90;;
58340;SDS011;44149;43.060;0.104;2022-07-23T10:47:49;3.80;;;2.85;;
58340;SDS011;44149;43.060;0.104;2022-07-23T10:50:22;4.80;;;3.00;;
58340;SDS011;44149;43.060;0.104;2022-07-23T10:58:00;4.60;;;2.95;;
58340;SDS011;44149;43.060;0.104;2022-07-23T11:00:33;10.43;;;2.88;;
58340;SDS011;44149;43.060;0.104;2022-07-23T11:05:45;6.47;;;2.58;;
58340;SDS011;44149;43.060;0.104;2022-07-23T11:10:42;5.07;;;2.20;;
58340;SDS011;44149;43.060;0.104;2022-07-23T11:21:58;2.85;;;2.05;;
58340;SDS011;44149;43.060;0.104;2022-07-23T11:24:00;5.90;;;3.20;;
58340;SDS011;44149;43.060;0.104;2022-07-23T11:31:52;4.72;;;2.95;;
58340;SDS011;44149;43.060;0.104;2022-07-23T11:34:27;5.18;;;3.38;;
58340;SDS011;44149;43.060;0.104;2022-07-23T11:36:53;5.43;;;3.00;;
58340;SDS011;44149;43.060;0.104;2022-07-23T11:39:20;4.05;;;2.63;;
58340;SDS011;44149;43.060;0.104;2022-07-23T11:41:46;5.78;;;3.00;;
58340;SDS011;44149;43.060;0.104;2022-07-23T11:44:55;5.00;;;2.92;;
58340;SDS011;44149;43.060;0.104;2022-07-23T11:47:03;6.97;;;2.58;;
58340;SDS011;44149;43.060;0.104;2022-07-23T11:49:30;5.32;;;3.00;;
58340;SDS011;44149;43.060;0.104;2022-07-23T11:52:02;5.80;;;2.92;;
58340;SDS011;44149;43.060;0.104;2022-07-23T11:54:30;6.28;;;3.10;;
58340;SDS011;44149;43.060;0.104;2022-07-23T11:56:59;3.50;;;2.40;;
58340;SDS011;44149;43.060;0.104;2022-07-23T11:59:26;5.03;;;2.92;;
58340;SDS011;44149;43.060;0.104;2022-07-23T12:02:01;4.68;;;2.72;;
58340;SDS011;44149;43.060;0.104;2022-07-23T12:04:40;5.82;;;2.53;;
58340;SDS011;44149;43.060;0.104;2022-07-23T12:09:51;7.72;;;2.65;;
58340;SDS011;44149;43.060;0.104;2022-07-23T12:12:18;5.25;;;2.50;;
58340;SDS011;44149;43.060;0.104;2022-07-23T12:14:48;3.67;;;2.47;;
58340;SDS011;44149;43.060;0.104;2022-07-23T12:17:14;5.32;;;2.75;;
58340;SDS011;44149;43.060;0.104;2022-07-23T12:19:41;5.78;;;2.70;;
58340;SDS011;44149;43.060;0.104;2022-07-23T12:22:07;5.03;;;2.05;;
58340;SDS011;44149;43.060;0.104;2022-07-23T12:24:54;6.63;;;2.83;;
58340;SDS011;44149;43.060;0.104;2022-07-23T12:27:21;3.67;;;2.40;;
58340;SDS011;44149;43.060;0.104;2022-07-23T12:29:47;3.95;;;2.22;;
58340;SDS011;44149;43.060;0.104;2022-07-23T12:32:18;4.07;;;2.63;;
58340;SDS011;44149;43.060;0.104;2022-07-23T12:34:45;3.95;;;2.35;;
58340;SDS011;44149;43.060;0.104;2022-07-23T12:39:56;3.88;;;2.17;;
58340;SDS011;44149;43.060;0.104;2022-07-23T12:42:22;3.72;;;2.05;;
58340;SDS011;44149;43.060;0.104;2022-07-23T12:45:08;5.88;;;1.90;;
58340;SDS011;44149;43.060;0.104;2022-07-23T12:50:34;3.13;;;2.03;;
58340;SDS011;44149;43.060;0.104;2022-07-23T12:53:08;2.40;;;1.83;;
58340;SDS011;44149;43.060;0.104;2022-07-23T12:55:35;3.00;;;1.55;;
58340;SDS011;44149;43.060;0.104;2022-07-23T12:58:05;3.35;;;1.70;;
58340;SDS011;44149;43.060;0.104;2022-07-23T13:00:31;2.97;;;1.70;;
58340;SDS011;44149;43.060;0.104;2022-07-23T13:02:58;3.33;;;2.00;;
58340;SDS011;44149;43.060;0.104;2022-07-23T13:05:24;4.18;;;1.58;;
58340;SDS011;44149;43.060;0.104;2022-07-23T13:07:50;3.40;;;1.73;;
58340;SDS011;44149;43.060;0.104;2022-07-23T13:10:16;1.60;;;1.13;;
58340;SDS011;44149;43.060;0.104;2022-07-23T13:12:42;2.17;;;1.48;;
58340;SDS011;44149;43.060;0.104;2022-07-23T13:15:08;2.85;;;1.58;;
58340;SDS011;44149;43.060;0.104;2022-07-23T13:17:34;3.60;;;1.88;;
58340;SDS011;44149;43.060;0.104;2022-07-23T13:20:01;2.47;;;1.65;;
58340;SDS011;44149;43.060;0.104;2022-07-23T13:22:27;2.47;;;1.55;;
58340;SDS011;44149;43.060;0.104;2022-07-23T13:24:54;2.40;;;1.48;;
58340;SDS011;44149;43.060;0.104;2022-07-23T13:27:20;3.83;;;1.70;;
58340;SDS011;44149;43.060;0.104;2022-07-23T13:29:46;2.22;;;1.55;;
58340;SDS011;44149;43.060;0.104;2022-07-23T13:32:12;3.65;;;1.42;;
58340;SDS011;44149;43.060;0.104;2022-07-23T13:34:39;2.75;;;1.88;;
58340;SDS011;44149;43.060;0.104;2022-07-23T13:37:05;3.97;;;2.08;;
58340;SDS011;44149;43.060;0.104;2022-07-23T13:39:31;3.50;;;1.95;;
58340;SDS011;44149;43.060;0.104;2022-07-23T13:41:57;3.90;;;2.47;;
58340;SDS011;44149;43.060;0.104;2022-07-23T13:44:23;2.30;;;1.85;;
58340;SDS011;44149;43.060;0.104;2022-07-23T13:46:50;3.08;;;1.67;;
58340;SDS011;44149;43.060;0.104;2022-07-23T13:49:16;3.65;;;2.03;;
58340;SDS011;44149;43.060;0.104;2022-07-23T13:51:42;2.72;;;2.10;;
58340;SDS011;44149;43.060;0.104;2022-07-23T13:54:08;3.15;;;2.13;;
58340;SDS011;44149;43.060;0.104;2022-07-23T13:56:35;3.33;;;1.92;;
58340;SDS011;44149;43.060;0.104;2022-07-23T13:59:01;2.80;;;1.90;;
58340;SDS011;44149;43.060;0.104;2022-07-23T14:01:27;6.60;;;2.40;;
58340;SDS011;44149;43.060;0.104;2022-07-23T14:03:53;2.90;;;2.00;;
58340;SDS011;44149;43.060;0.104;2022-07-23T14:06:19;4.50;;;1.60;;
58340;SDS011;44149;43.060;0.104;2022-07-23T14:08:46;1.98;;;1.42;;
58340;SDS011;44149;43.060;0.104;2022-07-23T14:11:12;2.45;;;1.67;;
58340;SDS011;44149;43.060;0.104;2022-07-23T14:13:38;2.05;;;1.23;;
58340;SDS011;44149;43.060;0.104;2022-07-23T14:16:05;2.90;;;1.70;;
58340;SDS011;44149;43.060;0.104;2022-07-23T14:18:31;4.10;;;1.67;;
58340;SDS011;44149;43.060;0.104;2022-07-23T14:20:57;6.13;;;1.75;;
58340;SDS011;44149;43.060;0.104;2022-07-23T14:23:24;2.10;;;1.40;;
58340;SDS011;44149;43.060;0.104;2022-07-23T14:25:51;2.85;;;1.40;;
58340;SDS011;44149;43.060;0.104;2022-07-23T14:28:17;2.25;;;1.40;;
58340;SDS011;44149;43.060;0.104;2022-07-23T14:30:43;1.70;;;1.40;;
58340;SDS011;44149;43.060;0.104;2022-07-23T14:33:09;2.38;;;1.50;;
58340;SDS011;44149;43.060;0.104;2022-07-23T14:35:35;1.77;;;1.20;;
58340;SDS011;44149;43.060;0.104;2022-07-23T14:38:04;2.38;;;1.50;;
58340;SDS011;44149;43.060;0.104;2022-07-23T14:40:30;1.98;;;1.30;;
58340;SDS011;44149;43.060;0.104;2022-07-23T14:42:56;2.25;;;1.40;;
58340;SDS011;44149;43.060;0.104;2022-07-23T14:45:23;1.92;;;1.33;;
58340;SDS011;44149;43.060;0.104;2022-07-23T14:47:51;3.33;;;1.27;;
58340;SDS011;44149;43.060;0.104;2022-07-23T14:50:17;4.20;;;2.00;;
58340;SDS011;44149;43.060;0.104;2022-07-23T14:52:43;3.25;;;1.75;;
58340;SDS011;44149;43.060;0.104;2022-07-23T14:55:09;4.82;;;1.80;;
58340;SDS011;44149;43.060;0.104;2022-07-23T14:57:36;2.30;;;1.52;;
58340;SDS011;44149;43.060;0.104;2022-07-23T15:00:03;2.50;;;1.70;;
58340;SDS011;44149;43.060;0.104;2022-07-23T15:02:30;2.60;;;1.60;;
58340;SDS011;44149;43.060;0.104;2022-07-23T15:04:56;2.88;;;1.60;;
58340;SDS011;44149;43.060;0.104;2022-07-23T15:07:26;2.55;;;1.70;;
58340;SDS011;44149;43.060;0.104;2022-07-23T15:09:52;1.88;;;1.50;;
58340;SDS011;44149;43.060;0.104;2022-07-23T15:12:18;2.42;;;1.50;;
58340;SDS011;44149;43.060;0.104;2022-07-23T15:14:44;2.72;;;1.65;;
58340;SDS011;44149;43.060;0.104;2022-07-23T15:17:10;2.65;;;1.50;;
58340;SDS011;44149;43.060;0.104;2022-07-23T15:19:37;2.70;;;1.75;;
58340;SDS011;44149;43.060;0.104;2022-07-23T15:22:03;2.00;;;1.30;;
58340;SDS011;44149;43.060;0.104;2022-07-23T15:24:30;2.75;;;1.75;;
58340;SDS011;44149;43.060;0.104;2022-07-23T15:26:56;2.13;;;1.38;;
58340;SDS011;44149;43.060;0.104;2022-07-23T15:29:22;2.85;;;1.52;;
58340;SDS011;44149;43.060;0.104;2022-07-23T15:31:49;2.05;;;1.67;;
58340;SDS011;44149;43.060;0.104;2022-07-23T15:34:15;2.58;;;1.83;;